首页
METAR-TAF:

METAR-TAF

机场 :

拉罗汤加国际机场

拉罗汤加岛, 库克群岛

纬度: 21-12S, 经度: 159-49W, 海拔: 7米

当前天气观测

该预报发布于32分钟前的08:30 UTC
风速2节,风向
温度 24°C
湿度 100%
气压 1016 hPa
能见度10公里或以上

METAR: NCRG 300830Z AUTO 19002KT 9999 NCD 24/24 Q1016

时间: 23:02 (09:02 UTC)

预报

该预报发布于3小时和58分钟前的05:04 UTC
预报有效从30日的 06点(UTC)到 31日的 06点(UTC)
风速3节,风向多变
能见度10公里或以上
多云层高于1200英尺
多云层高于2000英尺
几率 40% :
短暂存在
从 30日的 16点(UTC)到 31日的 06点(UTC)
能見度: 5000
多云层高于1500英尺
阵雨,

TAF: NCRG 300504Z 3006/3106 VRB03KT 9999 BKN012 BKN020 PROB40 TEMPO 3016/3106 5000 SHRA BKN015

超过4000个机场的气象观测和天气预报(METAR&TAF报告)。

可查询的气象台以黄色和红色小点在地图上表示。

将鼠标移到小点上方,可查看气象台名称。

然后点击查看天气观测和预报。

如需切换地图:点击带黑十字的绿色按钮放大地图;点击带横线的绿色按钮缩小地图;或者点击绿色箭头查看邻近地区的地图。


METAR-TAF: